createdAt,value
2018-03-30T00:00:03.218Z,2.70
2018-03-30T00:02:30.066Z,2.57
2018-03-30T00:04:56.912Z,2.60
2018-03-30T00:07:23.866Z,2.30
2018-03-30T00:09:55.820Z,2.50
2018-03-30T00:12:22.597Z,2.77
2018-03-30T00:14:50.330Z,2.43
2018-03-30T00:17:17.377Z,1.80
2018-03-30T00:19:44.328Z,2.43
2018-03-30T00:22:11.172Z,2.10
2018-03-30T00:24:38.226Z,2.40
2018-03-30T00:27:05.268Z,2.30
2018-03-30T00:29:32.116Z,2.50
2018-03-30T00:31:59.168Z,2.47
2018-03-30T00:34:26.119Z,2.60
2018-03-30T00:36:53.056Z,2.20
2018-03-30T00:39:20.108Z,2.43
2018-03-30T00:41:47.164Z,2.20
2018-03-30T00:44:14.207Z,2.20
2018-03-30T00:46:41.254Z,2.20
2018-03-30T00:49:08.312Z,2.30
2018-03-30T00:51:35.132Z,2.20
2018-03-30T00:54:02.095Z,2.80
2018-03-30T00:56:28.939Z,2.50
2018-03-30T00:58:56.304Z,2.63
2018-03-30T01:01:23.290Z,2.10
2018-03-30T01:03:50.395Z,2.00
2018-03-30T01:06:17.454Z,2.30
2018-03-30T01:08:45.220Z,2.00
2018-03-30T01:11:12.268Z,2.10
2018-03-30T01:13:39.312Z,2.27
2018-03-30T01:16:06.369Z,2.50
2018-03-30T01:18:33.412Z,1.97
2018-03-30T01:21:00.459Z,1.93
2018-03-30T01:23:27.517Z,2.20
2018-03-30T01:25:54.563Z,2.40
2018-03-30T01:28:21.605Z,2.20
2018-03-30T01:30:48.664Z,2.00
2018-03-30T01:33:15.602Z,2.00
2018-03-30T01:35:42.558Z,2.30
2018-03-30T01:38:09.608Z,1.77
2018-03-30T01:40:36.649Z,2.20
2018-03-30T01:43:03.709Z,2.13
2018-03-30T01:45:30.750Z,2.30
2018-03-30T01:47:57.514Z,2.30
2018-03-30T01:50:25.257Z,2.43
2018-03-30T01:52:52.206Z,2.27
2018-03-30T01:55:19.250Z,2.60
2018-03-30T01:57:46.303Z,2.10
2018-03-30T02:00:13.253Z,2.33
2018-03-30T02:02:40.311Z,2.03
2018-03-30T02:05:07.247Z,2.40
2018-03-30T02:07:34.294Z,2.23
2018-03-30T02:10:01.353Z,2.57
2018-03-30T02:12:28.187Z,1.80
2018-03-30T02:14:55.238Z,2.20
2018-03-30T02:17:22.194Z,2.17
2018-03-30T02:19:49.130Z,2.40
2018-03-30T02:22:16.180Z,2.40
2018-03-30T02:24:43.137Z,2.50
2018-03-30T02:27:10.180Z,3.00
2018-03-30T02:29:37.123Z,2.60
2018-03-30T02:32:04.175Z,2.30
2018-03-30T02:34:31.232Z,2.13
2018-03-30T02:36:58.046Z,1.90
2018-03-30T02:39:25.027Z,3.03
2018-03-30T02:41:52.067Z,2.70
2018-03-30T02:44:19.027Z,2.30
2018-03-30T02:46:46.780Z,2.50
2018-03-30T02:49:13.726Z,2.57
2018-03-30T02:51:40.551Z,2.20
2018-03-30T02:54:07.629Z,2.10
2018-03-30T02:56:34.575Z,2.03
2018-03-30T02:59:01.627Z,2.20
2018-03-30T03:01:29.288Z,2.17
2018-03-30T03:03:57.643Z,2.10
2018-03-30T03:06:24.478Z,2.30
2018-03-30T03:08:51.552Z,2.20
2018-03-30T03:11:18.604Z,2.37
2018-03-30T03:13:45.344Z,2.13
2018-03-30T03:16:12.294Z,2.27
2018-03-30T03:18:39.350Z,2.30
2018-03-30T03:21:06.297Z,2.10
2018-03-30T03:23:33.247Z,1.93
2018-03-30T03:26:00.294Z,1.73
2018-03-30T03:28:27.233Z,2.37
2018-03-30T03:30:54.293Z,2.23
2018-03-30T03:33:21.333Z,2.17
2018-03-30T03:35:48.178Z,2.00
2018-03-30T03:38:15.140Z,2.10
2018-03-30T03:40:42.789Z,1.80
2018-03-30T03:43:09.742Z,2.23
2018-03-30T03:45:36.578Z,2.50
2018-03-30T03:48:03.624Z,2.53
2018-03-30T03:50:30.780Z,2.20
2018-03-30T03:52:57.837Z,2.77
2018-03-30T03:55:24.879Z,2.60
2018-03-30T03:57:51.936Z,2.30
2018-03-30T04:00:19.486Z,1.97
2018-03-30T04:02:46.445Z,2.10
2018-03-30T04:05:13.279Z,2.10
2018-03-30T04:07:40.205Z,2.17
2018-03-30T04:10:07.172Z,1.83
2018-03-30T04:12:34.122Z,2.40
2018-03-30T04:15:01.067Z,1.90
2018-03-30T04:17:27.871Z,2.30
2018-03-30T04:19:54.970Z,2.30
2018-03-30T04:22:36.773Z,2.10
2018-03-30T04:25:03.707Z,3.10
2018-03-30T04:27:30.871Z,2.40
2018-03-30T04:29:57.802Z,2.50
2018-03-30T04:32:24.616Z,2.20
2018-03-30T04:34:51.603Z,2.13
2018-03-30T04:37:18.437Z,2.47
2018-03-30T04:39:46.214Z,2.20
2018-03-30T04:42:13.154Z,2.40
2018-03-30T04:44:40.012Z,1.93
2018-03-30T04:47:06.957Z,3.00
2018-03-30T04:49:34.008Z,2.30
2018-03-30T04:52:02.373Z,2.63
2018-03-30T04:54:29.431Z,2.73
2018-03-30T04:56:56.284Z,2.40
2018-03-30T04:59:23.324Z,2.40
2018-03-30T05:01:50.089Z,2.10
2018-03-30T05:04:18.541Z,2.40
2018-03-30T05:06:45.490Z,2.40
2018-03-30T05:09:12.382Z,2.40
2018-03-30T05:11:40.005Z,2.60
2018-03-30T05:14:06.946Z,2.20
2018-03-30T05:16:34.024Z,2.30
2018-03-30T05:19:01.871Z,2.50
2018-03-30T05:21:28.921Z,3.07
2018-03-30T05:23:57.206Z,2.97
2018-03-30T05:26:25.676Z,2.60
2018-03-30T05:28:52.781Z,2.53
2018-03-30T05:31:20.368Z,2.80
2018-03-30T05:33:47.336Z,2.93
2018-03-30T05:36:14.392Z,2.63
2018-03-30T05:38:41.229Z,2.80
2018-03-30T05:41:08.287Z,2.47
2018-03-30T05:43:35.328Z,2.97
2018-03-30T05:46:02.385Z,2.90
2018-03-30T05:48:29.441Z,2.77
2018-03-30T05:50:56.414Z,2.13
2018-03-30T05:53:24.038Z,2.53
2018-03-30T05:55:50.984Z,3.10
2018-03-30T05:58:18.031Z,3.43
2018-03-30T06:00:45.288Z,3.97
2018-03-30T06:03:12.236Z,3.70
2018-03-30T06:05:39.285Z,3.43
2018-03-30T06:08:06.250Z,3.77
2018-03-30T06:10:33.998Z,3.80
2018-03-30T06:13:01.057Z,2.80
2018-03-30T06:15:28.096Z,2.80
2018-03-30T06:17:55.046Z,3.00
2018-03-30T06:20:22.305Z,3.07
2018-03-30T06:22:49.345Z,2.93
2018-03-30T06:25:16.189Z,4.33
2018-03-30T06:27:43.139Z,5.43
2018-03-30T06:30:09.960Z,7.93
2018-03-30T06:32:37.033Z,8.37
2018-03-30T06:35:04.084Z,9.10
2018-03-30T06:37:31.132Z,7.90
2018-03-30T06:39:58.076Z,6.27
2018-03-30T06:42:25.135Z,5.97
2018-03-30T06:44:52.074Z,4.87
2018-03-30T06:47:19.132Z,4.57
2018-03-30T06:49:46.893Z,3.90
2018-03-30T06:52:13.838Z,3.50
2018-03-30T06:54:40.783Z,4.03
2018-03-30T06:57:07.844Z,5.47
2018-03-30T06:59:34.788Z,5.80
2018-03-30T07:02:01.729Z,5.77
2018-03-30T07:04:28.783Z,4.90
2018-03-30T07:06:55.825Z,4.30
2018-03-30T07:09:22.774Z,4.50
2018-03-30T07:11:49.920Z,3.70
2018-03-30T07:14:23.341Z,3.43
2018-03-30T07:16:50.958Z,3.53
2018-03-30T07:19:17.945Z,3.20
2018-03-30T07:21:44.878Z,3.00
2018-03-30T07:24:11.831Z,2.60
2018-03-30T07:26:38.879Z,2.73
2018-03-30T07:29:05.844Z,2.70
2018-03-30T07:31:32.675Z,3.27
2018-03-30T07:33:59.728Z,2.77
2018-03-30T07:36:26.478Z,2.87
2018-03-30T07:38:53.409Z,3.63
2018-03-30T07:41:20.466Z,4.37
2018-03-30T07:43:47.402Z,6.00
2018-03-30T07:46:14.248Z,4.67
2018-03-30T07:48:41.204Z,2.90
2018-03-30T07:51:08.243Z,4.20
2018-03-30T07:53:35.293Z,3.30
2018-03-30T07:56:02.245Z,3.83
2018-03-30T07:58:29.187Z,3.43
2018-03-30T08:00:56.247Z,4.57
2018-03-30T08:03:23.289Z,3.90
2018-03-30T08:05:50.339Z,3.70
2018-03-30T08:08:17.287Z,8.73
2018-03-30T08:10:44.101Z,11.27
2018-03-30T08:13:11.076Z,12.23
2018-03-30T08:15:38.021Z,11.43
2018-03-30T08:18:05.080Z,7.47
2018-03-30T08:20:32.131Z,4.87
2018-03-30T08:22:59.198Z,4.87
2018-03-30T08:25:26.938Z,5.97
2018-03-30T08:27:53.996Z,5.00
2018-03-30T08:30:21.035Z,5.20
2018-03-30T08:32:47.882Z,3.80
2018-03-30T08:35:14.931Z,3.60
2018-03-30T08:37:41.981Z,3.53
2018-03-30T08:40:09.036Z,4.60
2018-03-30T08:42:35.754Z,3.80
2018-03-30T08:45:02.834Z,4.13
2018-03-30T08:47:29.871Z,4.90
2018-03-30T08:49:56.927Z,3.67
2018-03-30T08:52:23.864Z,3.37
2018-03-30T08:54:50.924Z,4.60
2018-03-30T08:57:17.973Z,5.47
2018-03-30T08:59:45.022Z,5.17
2018-03-30T09:02:12.101Z,5.40
2018-03-30T09:04:39.807Z,5.37
2018-03-30T09:07:06.877Z,4.80
2018-03-30T09:09:34.732Z,5.30
2018-03-30T09:12:02.573Z,8.00
2018-03-30T09:14:43.381Z,7.07
2018-03-30T09:17:10.334Z,6.03
2018-03-30T09:19:37.384Z,4.10
2018-03-30T09:22:04.440Z,3.50
2018-03-30T09:24:31.280Z,3.63
2018-03-30T09:26:58.226Z,3.37
2018-03-30T09:29:25.308Z,3.37
2018-03-30T09:31:53.041Z,3.30
2018-03-30T09:34:20.101Z,3.90
2018-03-30T09:36:47.146Z,3.07
2018-03-30T09:39:14.085Z,3.60
2018-03-30T09:41:41.134Z,3.77
2018-03-30T09:44:08.183Z,3.47
2018-03-30T09:46:35.244Z,3.63
2018-03-30T09:49:02.179Z,3.63
2018-03-30T09:51:29.233Z,3.73
2018-03-30T09:53:57.508Z,4.20
2018-03-30T09:56:24.560Z,3.60
2018-03-30T09:58:51.607Z,3.30
2018-03-30T10:01:18.665Z,3.83
2018-03-30T10:03:48.583Z,3.77
2018-03-30T10:06:15.623Z,3.00
2018-03-30T10:08:42.681Z,3.67
2018-03-30T10:11:09.721Z,4.13
2018-03-30T10:13:36.771Z,3.60
2018-03-30T10:16:04.024Z,3.60
2018-03-30T10:18:31.086Z,3.30
2018-03-30T10:20:58.123Z,3.27
2018-03-30T10:23:25.175Z,4.13
2018-03-30T10:25:52.029Z,3.23
2018-03-30T10:28:19.076Z,3.23
2018-03-30T10:30:46.025Z,3.60
2018-03-30T10:33:13.072Z,3.17
2018-03-30T10:35:40.112Z,3.80
2018-03-30T10:38:06.958Z,3.50
2018-03-30T10:40:33.919Z,3.70
2018-03-30T10:43:01.670Z,4.03
2018-03-30T10:45:29.030Z,3.90
2018-03-30T10:47:55.872Z,3.67
2018-03-30T10:50:22.902Z,3.80
2018-03-30T10:52:49.869Z,3.00
2018-03-30T10:55:16.820Z,3.47
2018-03-30T10:57:43.874Z,4.23
2018-03-30T11:00:10.933Z,4.40
2018-03-30T11:02:37.864Z,3.90
2018-03-30T11:05:04.807Z,3.20
2018-03-30T11:07:31.634Z,3.73
2018-03-30T11:09:58.609Z,3.87
2018-03-30T11:12:25.652Z,3.97
2018-03-30T11:15:26.317Z,4.07
2018-03-30T11:17:54.062Z,3.40
2018-03-30T11:20:21.104Z,3.00
2018-03-30T11:22:48.060Z,3.03
2018-03-30T11:25:15.005Z,2.43
2018-03-30T11:27:41.841Z,2.80
2018-03-30T11:30:08.899Z,3.40
2018-03-30T11:32:35.812Z,3.07
2018-03-30T11:35:02.727Z,2.93
2018-03-30T11:37:29.844Z,2.83
2018-03-30T11:39:56.885Z,3.80
2018-03-30T11:42:23.710Z,4.50
2018-03-30T11:44:50.797Z,4.63
2018-03-30T11:47:17.844Z,7.17
2018-03-30T11:49:44.898Z,5.73
2018-03-30T11:52:11.870Z,4.80
2018-03-30T11:54:39.717Z,5.43
2018-03-30T12:00:04.981Z,3.97
2018-03-30T12:02:50.242Z,3.60
2018-03-30T12:05:28.152Z,3.57
2018-03-30T12:08:01.250Z,3.50
2018-03-30T12:10:42.052Z,2.70
2018-03-30T12:13:20.085Z,2.70
2018-03-30T12:18:47.846Z,3.27
2018-03-30T12:21:15.574Z,2.73
2018-03-30T12:23:43.746Z,2.73
2018-03-30T12:26:11.701Z,3.10
2018-03-30T12:28:39.703Z,2.83
2018-03-30T12:31:07.651Z,3.13
2018-03-30T12:33:35.466Z,3.23
2018-03-30T12:36:03.803Z,3.27
2018-03-30T12:38:31.968Z,2.70
2018-03-30T12:40:59.976Z,2.93
2018-03-30T12:43:27.306Z,2.40
2018-03-30T12:45:55.269Z,2.70
2018-03-30T12:48:22.733Z,2.77
2018-03-30T12:50:51.015Z,2.67
2018-03-30T12:53:19.506Z,2.40
2018-03-30T12:55:47.768Z,2.70
2018-03-30T12:58:15.950Z,3.43
2018-03-30T13:00:43.724Z,3.27
2018-03-30T13:03:12.035Z,3.30
2018-03-30T13:05:39.905Z,2.93
2018-03-30T13:08:07.015Z,3.67
2018-03-30T13:10:34.830Z,3.30
2018-03-30T13:13:02.064Z,2.93
2018-03-30T13:16:01.968Z,3.07
2018-03-30T13:18:29.895Z,2.53
2018-03-30T13:20:56.873Z,3.17
2018-03-30T13:23:24.778Z,2.73
2018-03-30T13:25:51.835Z,3.33
2018-03-30T13:28:18.785Z,3.40
2018-03-30T13:30:45.958Z,2.90
2018-03-30T13:33:12.961Z,2.43
2018-03-30T13:35:39.988Z,3.20
2018-03-30T13:38:07.847Z,2.80
2018-03-30T13:40:35.729Z,3.03
2018-03-30T13:43:03.513Z,3.13
2018-03-30T13:45:30.484Z,3.73
2018-03-30T13:47:57.896Z,3.37
2018-03-30T13:50:26.363Z,3.47
2018-03-30T13:52:59.353Z,3.50
2018-03-30T13:55:32.871Z,3.33
2018-03-30T13:58:30.233Z,3.67
2018-03-30T14:00:59.943Z,3.23
2018-03-30T14:03:34.573Z,3.23
2018-03-30T14:06:26.207Z,2.90
2018-03-30T14:08:55.123Z,2.77
2018-03-30T14:11:30.035Z,2.37
2018-03-30T14:13:58.936Z,3.10
2018-03-30T14:16:26.950Z,3.13
2018-03-30T14:19:05.244Z,3.23
2018-03-30T14:21:37.300Z,2.67
2018-03-30T14:24:08.380Z,2.70
2018-03-30T14:26:48.429Z,3.33
2018-03-30T14:29:26.621Z,2.90
2018-03-30T14:32:05.472Z,2.87
2018-03-30T14:34:35.552Z,3.10
2018-03-30T14:37:09.607Z,2.47
2018-03-30T14:42:32.411Z,2.83
2018-03-30T14:45:07.343Z,2.60
2018-03-30T14:47:36.338Z,3.13
2018-03-30T14:50:16.613Z,3.33
2018-03-30T14:52:50.105Z,3.10
2018-03-30T14:55:20.001Z,2.90
2018-03-30T14:57:54.132Z,2.80
2018-03-30T15:00:24.856Z,4.47
2018-03-30T15:02:56.116Z,14.80
2018-03-30T15:05:47.033Z,5.73
2018-03-30T15:08:33.782Z,4.67
2018-03-30T15:11:19.322Z,4.27
2018-03-30T15:13:50.279Z,4.40
2018-03-30T15:19:36.383Z,3.40
2018-03-30T15:22:08.283Z,4.23
2018-03-30T15:24:37.537Z,3.10
2018-03-30T15:27:09.809Z,2.90
2018-03-30T15:29:43.831Z,4.03
2018-03-30T15:35:12.148Z,3.07
2018-03-30T15:37:40.657Z,4.63
2018-03-30T15:40:14.852Z,3.10
2018-03-30T15:42:43.811Z,3.20
2018-03-30T15:45:11.885Z,2.70
2018-03-30T15:47:39.255Z,2.83
2018-03-30T15:50:07.232Z,2.97
2018-03-30T15:52:36.640Z,2.80
2018-03-30T15:55:05.117Z,4.60
2018-03-30T15:57:33.074Z,4.50
2018-03-30T16:00:08.115Z,3.53
2018-03-30T16:02:36.406Z,3.27
2018-03-30T16:05:04.679Z,3.30
2018-03-30T16:07:32.553Z,3.03
2018-03-30T16:12:57.810Z,2.80
2018-03-30T16:18:55.049Z,3.47
2018-03-30T16:21:22.118Z,2.30
2018-03-30T16:23:50.195Z,2.47
2018-03-30T16:26:18.562Z,3.27
2018-03-30T16:28:46.112Z,3.17
2018-03-30T16:31:13.168Z,2.50
2018-03-30T16:33:40.833Z,2.90
2018-03-30T16:36:08.804Z,2.80
2018-03-30T16:38:36.410Z,3.30
2018-03-30T16:41:04.244Z,2.60
2018-03-30T16:43:31.861Z,2.67
2018-03-30T16:45:58.714Z,3.30
2018-03-30T16:48:26.831Z,3.40
2018-03-30T16:50:54.897Z,3.20
2018-03-30T16:53:22.581Z,3.17
2018-03-30T16:55:49.428Z,4.70
2018-03-30T16:58:16.197Z,4.80
2018-03-30T17:00:43.060Z,5.40
2018-03-30T17:03:09.918Z,4.23
2018-03-30T17:05:36.746Z,3.27
2018-03-30T17:08:03.591Z,5.20
2018-03-30T17:10:30.749Z,4.30
2018-03-30T17:12:57.588Z,3.70
2018-03-30T17:15:51.857Z,5.80
2018-03-30T17:18:18.920Z,4.63
2018-03-30T17:20:45.847Z,4.73
2018-03-30T17:23:12.715Z,4.23
2018-03-30T17:25:39.577Z,4.40
2018-03-30T17:28:07.384Z,4.10
2018-03-30T17:30:34.177Z,4.50
2018-03-30T17:33:01.061Z,5.17
2018-03-30T17:35:29.341Z,6.47
2018-03-30T17:37:57.937Z,5.30
2018-03-30T17:40:24.967Z,5.00
2018-03-30T17:42:52.691Z,8.13
2018-03-30T17:45:19.533Z,14.00
2018-03-30T17:47:46.460Z,16.00
2018-03-30T17:50:13.341Z,10.13
2018-03-30T17:52:40.155Z,5.23
2018-03-30T17:55:06.996Z,4.53
2018-03-30T17:57:33.864Z,4.73
2018-03-30T18:00:00.675Z,5.43
2018-03-30T18:02:27.609Z,6.67
2018-03-30T18:04:54.455Z,4.20
2018-03-30T18:07:21.267Z,3.77
2018-03-30T18:09:48.909Z,3.30
2018-03-30T18:12:15.844Z,3.50
2018-03-30T18:14:52.507Z,5.63
2018-03-30T18:17:19.420Z,4.07
2018-03-30T18:19:46.292Z,3.87
2018-03-30T18:22:13.149Z,3.53
2018-03-30T18:24:40.113Z,3.43
2018-03-30T18:27:06.990Z,3.47
2018-03-30T18:29:34.590Z,3.27
2018-03-30T18:32:01.430Z,3.80
2018-03-30T18:34:28.251Z,4.90
2018-03-30T18:36:55.199Z,3.33
2018-03-30T18:39:22.722Z,3.43
2018-03-30T18:41:49.641Z,3.50
2018-03-30T18:44:17.278Z,8.80
2018-03-30T18:46:44.146Z,5.70
2018-03-30T18:49:11.097Z,9.10
2018-03-30T18:51:37.995Z,4.80
2018-03-30T18:54:05.540Z,3.53
2018-03-30T18:56:32.388Z,3.30
2018-03-30T18:58:59.714Z,3.40
2018-03-30T19:01:26.602Z,3.57
2018-03-30T19:03:54.243Z,3.33
2018-03-30T19:06:21.139Z,3.63
2018-03-30T19:08:48.543Z,3.60
2018-03-30T19:11:21.212Z,3.30
2018-03-30T19:13:48.123Z,3.10
2018-03-30T19:19:15.380Z,3.27
2018-03-30T19:21:43.454Z,4.00
2018-03-30T19:24:11.727Z,3.60
2018-03-30T19:26:39.815Z,3.00
2018-03-30T19:29:07.979Z,2.50
2018-03-30T19:31:36.154Z,2.33
2018-03-30T19:34:04.234Z,2.70
2018-03-30T19:36:32.303Z,2.50
2018-03-30T19:39:00.520Z,2.50
2018-03-30T19:44:57.873Z,2.30
2018-03-30T19:47:25.836Z,2.20
2018-03-30T19:49:54.012Z,2.20
2018-03-30T19:52:21.465Z,2.43
2018-03-30T19:54:49.686Z,2.03
2018-03-30T19:57:16.803Z,2.30
2018-03-30T19:59:44.807Z,2.40
2018-03-30T20:02:12.228Z,2.43
2018-03-30T20:04:40.403Z,3.00
2018-03-30T20:07:08.469Z,2.90
2018-03-30T20:09:36.661Z,2.90
2018-03-30T20:12:04.724Z,2.57
2018-03-30T20:14:44.939Z,2.50
2018-03-30T20:20:09.288Z,1.87
2018-03-30T20:22:37.165Z,2.20
2018-03-30T20:25:05.344Z,2.17
2018-03-30T20:28:10.697Z,1.80
2018-03-30T20:30:38.865Z,1.83
2018-03-30T20:33:06.874Z,1.77
2018-03-30T20:35:33.881Z,2.07
2018-03-30T20:38:01.882Z,2.70
2018-03-30T20:40:30.038Z,2.10
2018-03-30T20:42:57.772Z,2.10
2018-03-30T20:45:26.086Z,2.20
2018-03-30T20:47:54.145Z,2.27
2018-03-30T20:50:22.218Z,2.37
2018-03-30T20:52:50.397Z,2.03
2018-03-30T20:55:18.262Z,1.73
2018-03-30T20:57:45.810Z,1.70
2018-03-30T21:00:12.573Z,1.90
2018-03-30T21:02:39.319Z,1.50
2018-03-30T21:05:06.874Z,1.80
2018-03-30T21:07:34.428Z,1.90
2018-03-30T21:10:01.911Z,1.80
2018-03-30T21:12:28.709Z,1.60
2018-03-30T21:15:12.344Z,2.03
2018-03-30T21:23:15.866Z,1.73
2018-03-30T21:25:59.400Z,2.03
2018-03-30T21:28:40.194Z,1.73
2018-03-30T21:39:42.608Z,1.53
2018-03-30T21:42:09.989Z,1.70
2018-03-30T21:44:36.556Z,1.60
2018-03-30T21:47:03.978Z,1.80
2018-03-30T21:49:30.463Z,1.87
2018-03-30T21:51:57.680Z,1.63
2018-03-30T21:54:24.284Z,1.67
2018-03-30T21:56:50.805Z,1.80
2018-03-30T21:59:17.355Z,1.50
2018-03-30T22:01:43.938Z,1.50
2018-03-30T22:04:10.429Z,1.50
2018-03-30T22:06:36.890Z,1.90
2018-03-30T22:09:03.388Z,1.40
2018-03-30T22:11:29.955Z,1.60
2018-03-30T22:13:56.489Z,1.73
2018-03-30T22:16:23.772Z,1.80
2018-03-30T22:18:50.228Z,1.43
2018-03-30T22:21:17.402Z,2.20
2018-03-30T22:23:43.878Z,1.70
2018-03-30T22:26:10.341Z,1.90
2018-03-30T22:28:36.786Z,1.90
2018-03-30T22:31:03.962Z,1.83
2018-03-30T22:33:30.432Z,1.80
2018-03-30T22:35:57.176Z,1.90
2018-03-30T22:38:23.618Z,1.70
2018-03-30T22:40:50.137Z,1.70
2018-03-30T22:43:16.593Z,1.80
2018-03-30T22:45:43.064Z,1.50
2018-03-30T22:48:10.226Z,1.80
2018-03-30T22:50:37.425Z,1.67
2018-03-30T22:53:03.846Z,1.97
2018-03-30T22:55:30.294Z,2.37
2018-03-30T22:57:56.804Z,2.50
2018-03-30T23:00:23.313Z,2.43
2018-03-30T23:02:50.520Z,2.93
2018-03-30T23:05:17.008Z,2.80
2018-03-30T23:07:44.234Z,2.53
2018-03-30T23:10:10.695Z,2.50
2018-03-30T23:12:37.895Z,3.10
2018-03-30T23:15:04.369Z,2.83
2018-03-30T23:17:31.584Z,3.23
2018-03-30T23:19:58.054Z,2.97
2018-03-30T23:22:24.665Z,3.13
2018-03-30T23:24:51.205Z,3.00
2018-03-30T23:27:17.742Z,2.90
2018-03-30T23:29:44.283Z,3.37
2018-03-30T23:32:10.790Z,3.57
2018-03-30T23:34:37.352Z,2.70
2018-03-30T23:37:03.994Z,3.10
2018-03-30T23:39:30.632Z,3.30
2018-03-30T23:41:57.274Z,3.40
2018-03-30T23:44:24.603Z,3.60
2018-03-30T23:46:51.268Z,2.90
2018-03-30T23:49:17.808Z,3.40
2018-03-30T23:51:44.445Z,3.60
2018-03-30T23:54:11.087Z,3.07
2018-03-30T23:56:37.625Z,3.13
2018-03-30T23:59:04.262Z,3.17
